createdAt,value
2023-04-18T12:34:35.337Z,41.1012
2023-04-18T12:35:36.319Z,41.4408
2023-04-18T12:36:37.353Z,40.5833
2023-04-18T12:37:38.362Z,39.2597
2023-04-18T12:38:39.370Z,38.5884
2023-04-18T12:39:40.314Z,37.6099
2023-04-18T12:40:41.289Z,37.0836
2023-04-18T12:41:42.255Z,36.9881
2023-04-18T12:42:43.221Z,36.8428
2023-04-18T12:43:44.212Z,36.7973
2023-04-18T12:44:46.956Z,36.3369
2023-04-18T12:45:46.326Z,36.2623
2023-04-18T12:46:47.351Z,36.1677
2023-04-18T12:47:48.393Z,36.1376
2023-04-18T12:48:49.378Z,36.2883
2023-04-18T12:49:50.438Z,36.4850
2023-04-18T12:50:51.374Z,36.7707
2023-04-18T12:51:52.379Z,36.9543
2023-04-18T12:52:53.429Z,36.6335
2023-04-18T12:53:54.405Z,36.0757
2023-04-18T12:54:55.362Z,35.6911
2023-04-18T12:55:56.351Z,35.6603
2023-04-18T12:56:57.327Z,35.5271
2023-04-18T12:57:58.369Z,35.4844
2023-04-18T12:58:59.300Z,35.3944
2023-04-18T13:00:00.310Z,35.3618
2023-04-18T13:01:01.309Z,35.2012
2023-04-18T13:02:02.317Z,34.8798
2023-04-18T13:03:03.499Z,34.5025
2023-04-18T13:04:12.447Z,34.2559
2023-04-18T13:05:06.341Z,33.9551
2023-04-18T13:06:08.410Z,34.2392
2023-04-18T13:07:09.337Z,34.2935
2023-04-18T13:08:17.054Z,34.2297
2023-04-18T13:09:12.363Z,34.3044
2023-04-18T13:10:13.453Z,34.0606
2023-04-18T13:11:14.471Z,34.2432
2023-04-18T13:12:15.410Z,33.6862
2023-04-18T13:13:16.480Z,33.2229
2023-04-18T13:14:17.465Z,33.0632
2023-04-18T13:15:18.428Z,33.0798
2023-04-18T13:16:19.491Z,33.3164
2023-04-18T13:17:20.490Z,33.5671
2023-04-18T13:18:21.473Z,33.5931
2023-04-18T13:19:22.415Z,33.6101
2023-04-18T13:20:23.493Z,33.6519
2023-04-18T13:21:24.421Z,32.9078
2023-04-18T13:22:25.412Z,32.5745
2023-04-18T13:23:26.419Z,32.5787
2023-04-18T13:24:27.383Z,32.4139
2023-04-18T13:25:28.390Z,32.7729
2023-04-18T13:26:29.336Z,32.1386
2023-04-18T13:27:30.317Z,31.3399
2023-04-18T13:28:31.009Z,31.3259
2023-04-18T13:29:31.197Z,31.3361
2023-04-18T13:30:32.038Z,31.4756
2023-04-18T13:31:32.827Z,31.6428
2023-04-18T13:32:33.676Z,31.6337
2023-04-18T13:33:34.396Z,31.3150
2023-04-18T13:34:35.129Z,31.1813
2023-04-18T13:35:35.889Z,31.3535
2023-04-18T13:36:36.635Z,31.5156
2023-04-18T13:37:37.630Z,30.9863
2023-04-18T13:38:38.400Z,30.3534
2023-04-18T13:39:39.644Z,30.0359
2023-04-18T13:40:40.361Z,30.1987
2023-04-18T13:41:41.131Z,30.0152
2023-04-18T13:42:41.836Z,29.4405
2023-04-18T13:43:42.829Z,29.1950
2023-04-18T13:44:43.583Z,29.6723
2023-04-18T13:45:44.439Z,29.6479
2023-04-18T13:46:45.417Z,29.1399
2023-04-18T13:47:46.131Z,29.5151
2023-04-18T13:48:46.887Z,29.2808
2023-04-18T13:49:47.601Z,29.4061
2023-04-18T13:50:48.344Z,28.7981
2023-04-18T13:51:49.115Z,28.6209
2023-04-18T13:52:49.808Z,28.5402
2023-04-18T13:53:50.579Z,28.0653
2023-04-18T13:54:51.343Z,27.7690
2023-04-18T13:55:52.061Z,27.6315
2023-04-18T13:56:52.803Z,27.8148
2023-04-18T13:57:53.561Z,27.7503
2023-04-18T13:58:54.290Z,27.6288
2023-04-18T13:59:55.010Z,27.5094
2023-04-18T14:00:56.318Z,27.2180
2023-04-18T14:01:57.167Z,27.2392
2023-04-18T14:02:58.059Z,27.5169
2023-04-18T14:03:59.037Z,27.2828
2023-04-18T14:05:00.037Z,27.0966
2023-04-18T14:06:00.859Z,26.8110
2023-04-18T14:07:01.659Z,26.3612
2023-04-18T14:08:02.397Z,26.0684
2023-04-18T14:09:03.369Z,26.1273
2023-04-18T14:10:04.106Z,25.7888
2023-04-18T14:11:04.873Z,25.6296
2023-04-18T14:12:05.593Z,25.8606
2023-04-18T14:13:06.334Z,25.6039
2023-04-18T14:14:07.073Z,25.6247
2023-04-18T14:15:07.890Z,25.3828
2023-04-18T14:16:08.686Z,25.2868
2023-04-18T14:17:09.426Z,25.0335
2023-04-18T14:18:10.205Z,24.8657
2023-04-18T14:19:11.036Z,25.0258
2023-04-18T14:20:11.818Z,25.1103
2023-04-18T14:21:12.592Z,25.0489
2023-04-18T14:22:14.375Z,25.2539
2023-04-18T14:23:15.100Z,25.4354
2023-04-18T14:24:15.870Z,25.6490
2023-04-18T14:25:16.615Z,25.8355
2023-04-18T14:26:17.358Z,25.9871
2023-04-18T14:27:18.105Z,26.2583
2023-04-18T14:28:18.844Z,26.6079
2023-04-18T14:29:19.582Z,26.3813
2023-04-18T14:30:20.318Z,26.0655
2023-04-18T14:31:21.125Z,25.8692
2023-04-18T14:32:21.902Z,25.7245
2023-04-18T14:33:22.633Z,25.8337
2023-04-18T14:34:23.390Z,26.1223
2023-04-18T14:35:24.118Z,26.4629
2023-04-18T14:36:24.854Z,26.7625
2023-04-18T14:37:25.613Z,26.8620
2023-04-18T14:38:26.346Z,27.0101
2023-04-18T14:39:27.119Z,27.1306
2023-04-18T14:40:27.888Z,27.0851
2023-04-18T14:41:28.631Z,27.2613
2023-04-18T14:42:29.410Z,27.2051
2023-04-18T14:43:30.156Z,27.0076
2023-04-18T14:44:30.949Z,26.5961
2023-04-18T14:45:31.693Z,26.3123
2023-04-18T14:46:32.489Z,26.4202
2023-04-18T14:47:33.274Z,26.5556
2023-04-18T14:48:34.010Z,26.4424
2023-04-18T14:49:34.758Z,26.2185
2023-04-18T14:50:35.501Z,26.1957
2023-04-18T14:51:36.306Z,26.0889
2023-04-18T14:52:37.058Z,25.9902
2023-04-18T14:53:37.805Z,26.1565
2023-04-18T14:54:38.581Z,26.2181
2023-04-18T14:55:39.317Z,26.2976
2023-04-18T14:56:40.178Z,26.6795
2023-04-18T14:57:40.939Z,26.9053
2023-04-18T14:58:41.696Z,26.8126
2023-04-18T14:59:42.480Z,26.9021
2023-04-18T15:00:43.218Z,27.0229
2023-04-18T15:01:43.974Z,27.2148
2023-04-18T15:02:44.987Z,27.0927
2023-04-18T15:03:46.007Z,27.3781
2023-04-18T15:04:46.976Z,27.2103
2023-04-18T15:05:47.756Z,26.8080
2023-04-18T15:06:48.543Z,26.6487
2023-04-18T15:07:49.275Z,26.5457
2023-04-18T15:08:50.018Z,26.7297
2023-04-18T15:09:50.806Z,26.9977
2023-04-18T15:10:51.570Z,26.7617
2023-04-18T15:11:59.846Z,26.2007
2023-04-18T15:13:00.586Z,26.1845
2023-04-18T15:14:01.807Z,26.0281
2023-04-18T15:15:02.559Z,25.7761
2023-04-18T15:16:03.383Z,25.6038
2023-04-18T15:17:04.162Z,25.6080
2023-04-18T15:18:04.992Z,25.6331
2023-04-18T15:19:05.707Z,25.4229
2023-04-18T15:20:06.477Z,25.3565
2023-04-18T15:21:07.208Z,25.1083
2023-04-18T15:22:07.949Z,25.2219
2023-04-18T15:23:08.693Z,25.2247
2023-04-18T15:24:09.450Z,25.0236
2023-04-18T15:25:10.278Z,24.7982
2023-04-18T15:26:10.990Z,24.8314
2023-04-18T15:28:12.106Z,24.5939
2023-04-18T15:28:12.106Z,25.3571
2023-04-18T15:29:14.364Z,25.3575
2023-04-18T15:30:15.108Z,25.0245
2023-04-18T15:31:15.986Z,24.9180
2023-04-18T15:32:16.875Z,25.3497
2023-04-18T15:33:17.577Z,25.5002
2023-04-18T15:34:18.321Z,25.3020
2023-04-18T15:35:19.078Z,25.4568
2023-04-18T15:36:19.838Z,25.2394
2023-04-18T15:37:20.582Z,25.0266
2023-04-18T15:38:21.325Z,25.0840
2023-04-18T15:39:22.044Z,25.0538
2023-04-18T15:40:22.863Z,25.0154
2023-04-18T15:41:23.650Z,25.0364
2023-04-18T15:42:24.409Z,25.3783
2023-04-18T15:43:25.202Z,25.6274
2023-04-18T15:44:25.965Z,25.8694
2023-04-18T15:45:26.785Z,26.1216
2023-04-18T15:46:27.549Z,26.5973
2023-04-18T15:47:28.293Z,27.0128
2023-04-18T15:48:29.078Z,27.3313
2023-04-18T15:49:29.857Z,27.6600
2023-04-18T15:50:32.160Z,27.9639
2023-04-18T15:51:31.651Z,28.0618
2023-04-18T15:52:32.460Z,28.3151
2023-04-18T15:53:33.247Z,28.3633
2023-04-18T15:54:34.025Z,28.3657
2023-04-18T15:55:34.827Z,28.3869
2023-04-18T15:56:35.572Z,28.5246
2023-04-18T15:57:36.355Z,28.5157
2023-04-18T15:58:37.115Z,28.3365
2023-04-18T15:59:37.927Z,28.3495
2023-04-18T16:00:43.186Z,28.1801
2023-04-18T16:01:45.835Z,28.2938
2023-04-18T16:02:47.124Z,28.4156
2023-04-18T16:03:48.072Z,28.5043
2023-04-18T16:04:48.884Z,28.7940
2023-04-18T16:05:49.648Z,28.9087
2023-04-18T16:06:50.425Z,28.9600
2023-04-18T16:07:51.254Z,28.9027
2023-04-18T16:08:52.007Z,28.8384
2023-04-18T16:09:52.828Z,28.8661
2023-04-18T16:10:53.599Z,29.1065
2023-04-18T16:11:54.386Z,29.3987
2023-04-18T16:12:55.157Z,29.8681
2023-04-18T16:13:55.947Z,30.2939
2023-04-18T16:14:56.702Z,30.7094
2023-04-18T16:15:57.746Z,30.9496
2023-04-18T16:16:58.547Z,31.1300
2023-04-18T16:17:59.377Z,31.3171
2023-04-18T16:19:00.124Z,31.4718
2023-04-18T16:20:00.867Z,31.8525
2023-04-18T16:21:01.765Z,32.1572
2023-04-18T16:22:02.531Z,32.3418
2023-04-18T16:23:03.279Z,32.4388
2023-04-18T16:24:04.292Z,32.4818
2023-04-18T16:25:05.083Z,32.5475
2023-04-18T16:26:05.888Z,32.6133
2023-04-18T16:27:06.630Z,32.6518
2023-04-18T16:28:07.397Z,32.6341
2023-04-18T16:29:08.189Z,32.6690
2023-04-18T16:30:08.986Z,32.8198
2023-04-18T16:31:09.994Z,32.9745
2023-04-18T16:32:10.761Z,33.0748
2023-04-18T16:33:11.627Z,33.1898
2023-04-18T16:34:12.511Z,33.3465
2023-04-18T16:35:13.378Z,33.4335
2023-04-18T16:36:14.473Z,33.5745
2023-04-18T16:37:15.225Z,33.6597
2023-04-18T16:38:16.023Z,33.6944
2023-04-18T16:39:16.846Z,33.6137
2023-04-18T16:40:17.624Z,33.6411
2023-04-18T16:41:18.414Z,33.5419
2023-04-18T16:42:19.196Z,33.5638
2023-04-18T16:43:19.948Z,33.7128
2023-04-18T16:44:20.720Z,33.8471
2023-04-18T16:45:21.474Z,34.0023
2023-04-18T16:46:22.322Z,34.1116
2023-04-18T16:47:23.111Z,34.2008
2023-04-18T16:48:23.899Z,34.2933
2023-04-18T16:49:24.686Z,34.4301
2023-04-18T16:50:25.500Z,34.5766
2023-04-18T16:51:26.317Z,34.7373
2023-04-18T16:52:27.105Z,34.9460
2023-04-18T16:53:28.206Z,35.0676
2023-04-18T16:54:28.962Z,35.1121
2023-04-18T16:55:29.759Z,35.2397
2023-04-18T16:56:30.726Z,35.2622
2023-04-18T16:57:31.508Z,35.3040
2023-04-18T16:58:32.269Z,35.5093
2023-04-18T16:59:33.058Z,35.4658
2023-04-18T17:00:33.821Z,35.5340
2023-04-18T17:01:34.705Z,35.6696
2023-04-18T17:02:35.522Z,35.7237
2023-04-18T17:03:36.798Z,35.8447
2023-04-18T17:04:37.756Z,35.9469
2023-04-18T17:05:38.573Z,35.9900
2023-04-18T17:06:39.398Z,36.0655
2023-04-18T17:07:40.174Z,36.1342
2023-04-18T17:08:40.980Z,36.2121
2023-04-18T17:09:41.734Z,36.3632
2023-04-18T17:10:42.542Z,36.5044
2023-04-18T17:11:43.482Z,36.7775
2023-04-18T17:12:44.294Z,36.9537
2023-04-18T17:13:45.054Z,37.2197
2023-04-18T17:14:45.854Z,37.4047
2023-04-18T17:15:46.699Z,37.6351
2023-04-18T17:16:47.736Z,37.9450
2023-04-18T17:17:48.953Z,38.2469
2023-04-18T17:18:49.963Z,38.5152
2023-04-18T17:19:50.729Z,38.7309
2023-04-18T17:20:51.517Z,39.0125
2023-04-18T17:21:52.351Z,39.2650
2023-04-18T17:22:53.117Z,39.4803
2023-04-18T17:23:53.893Z,39.7793
2023-04-18T17:24:54.676Z,39.9837
2023-04-18T17:25:55.780Z,40.2113
2023-04-18T17:26:56.570Z,40.4277
2023-04-18T17:27:57.413Z,40.5950
2023-04-18T17:28:57.309Z,40.7969
2023-04-18T17:29:58.086Z,41.0366
2023-04-18T17:30:59.115Z,41.2925
2023-04-18T17:31:59.910Z,41.5076
2023-04-18T17:33:00.712Z,41.7020
2023-04-18T17:34:01.596Z,42.0604
2023-04-18T17:35:02.351Z,42.2864
2023-04-18T17:36:04.319Z,42.4681
2023-04-18T17:37:03.234Z,42.7794
2023-04-18T17:38:04.024Z,43.0142
2023-04-18T17:39:04.805Z,43.2442
2023-04-18T17:40:05.588Z,43.5013
2023-04-18T17:41:06.370Z,43.7072
2023-04-18T17:42:07.172Z,44.0088
2023-04-18T17:43:07.958Z,44.2584
2023-04-18T17:44:08.836Z,44.4914
2023-04-18T17:45:09.603Z,44.7445
2023-04-18T17:46:17.490Z,44.9676
2023-04-18T17:47:18.401Z,45.2126
2023-04-18T17:48:26.930Z,45.3796
2023-04-18T17:49:20.637Z,45.7550
2023-04-18T17:50:21.414Z,46.0028
2023-04-18T17:51:22.426Z,46.2197
2023-04-18T17:52:23.227Z,46.4436
2023-04-18T17:53:24.034Z,46.7033
2023-04-18T17:54:24.833Z,47.0205
2023-04-18T17:55:25.637Z,47.3214
2023-04-18T17:56:26.423Z,47.5133
2023-04-18T17:57:27.235Z,47.7281
2023-04-18T17:58:27.995Z,48.0036
2023-04-18T17:59:28.773Z,48.1711
2023-04-18T18:00:29.557Z,48.4122
2023-04-18T18:01:30.474Z,48.6776
2023-04-18T18:02:31.471Z,48.8852
2023-04-18T18:03:32.498Z,49.0888
2023-04-18T18:04:33.467Z,49.3901
2023-04-18T18:05:34.341Z,49.5871
2023-04-18T18:06:35.119Z,49.8658
2023-04-18T18:07:35.906Z,50.1478
2023-04-18T18:08:37.072Z,50.3454
2023-04-18T18:09:37.867Z,50.5414
2023-04-18T18:10:38.617Z,50.7546
2023-04-18T18:11:39.384Z,51.0366
2023-04-18T18:12:40.381Z,51.2624
2023-04-18T18:13:41.180Z,51.4961
2023-04-18T18:14:41.994Z,51.7729
2023-04-18T18:15:42.744Z,51.9419
2023-04-18T18:16:43.567Z,52.1777
2023-04-18T18:17:44.407Z,52.3813
2023-04-18T18:18:45.235Z,52.5783
2023-04-18T18:19:46.028Z,52.8093
2023-04-18T18:20:46.793Z,53.0212
2023-04-18T18:21:47.588Z,53.2107
2023-04-18T18:22:48.373Z,53.4069
2023-04-18T18:23:49.153Z,53.6137
2023-04-18T18:24:49.928Z,53.6800
2023-04-18T18:25:50.711Z,53.7835
2023-04-18T18:26:51.832Z,54.0743
2023-04-18T18:27:52.676Z,54.3194
2023-04-18T18:28:53.418Z,54.5391
2023-04-18T18:29:54.198Z,54.7552
2023-04-18T18:30:54.990Z,54.9413
2023-04-18T18:31:55.721Z,55.0563
2023-04-18T18:32:56.528Z,55.2555
2023-04-18T18:33:57.312Z,55.4064
2023-04-18T18:34:58.110Z,55.6478
2023-04-18T18:35:58.880Z,55.8017
2023-04-18T18:36:59.653Z,55.9297
2023-04-18T18:38:00.702Z,55.9401
2023-04-18T18:39:01.485Z,56.0520
2023-04-18T18:40:02.261Z,56.3154
2023-04-18T18:41:03.926Z,56.4529
2023-04-18T18:42:04.719Z,56.6169
2023-04-18T18:43:05.538Z,56.7891
2023-04-18T18:44:06.292Z,56.9090
2023-04-18T18:45:07.048Z,56.8966
2023-04-18T18:46:07.856Z,57.0634
2023-04-18T18:47:08.606Z,57.2410
2023-04-18T18:48:09.644Z,57.2676
2023-04-18T18:49:10.430Z,57.4415
2023-04-18T18:50:11.177Z,57.5622
2023-04-18T18:51:11.989Z,57.6251
2023-04-18T18:52:12.794Z,57.7897
2023-04-18T18:53:13.575Z,57.8546
2023-04-18T18:54:14.347Z,58.0065
2023-04-18T18:55:15.154Z,58.1353
2023-04-18T18:56:15.925Z,58.2788
2023-04-18T18:57:16.683Z,58.4213
2023-04-18T18:58:17.477Z,58.4728
2023-04-18T18:59:18.250Z,58.5156
2023-04-18T19:00:19.032Z,58.6342
2023-04-18T19:01:19.839Z,58.6563
2023-04-18T19:02:20.818Z,58.7788
2023-04-18T19:03:21.885Z,58.8997
2023-04-18T19:04:22.869Z,58.9325
2023-04-18T19:05:23.889Z,58.9742
2023-04-18T19:06:24.660Z,59.1285
2023-04-18T19:07:25.525Z,59.1771
2023-04-18T19:08:26.854Z,59.2490
2023-04-18T19:09:27.600Z,59.3397
2023-04-18T19:10:28.366Z,59.4359
2023-04-18T19:11:29.174Z,59.5023
2023-04-18T19:12:29.920Z,59.5428
2023-04-18T19:13:30.872Z,59.6569
2023-04-18T19:14:31.634Z,59.8007
2023-04-18T19:15:32.408Z,59.8807
2023-04-18T19:16:33.239Z,59.9280
2023-04-18T19:17:34.034Z,60.0366
2023-04-18T19:18:34.804Z,60.0668
2023-04-18T19:19:35.572Z,60.2251
2023-04-18T19:20:36.394Z,60.2949
2023-04-18T19:21:37.206Z,60.3099
2023-04-18T19:22:38.006Z,60.3818
2023-04-18T19:23:38.857Z,60.5216
2023-04-18T19:24:39.630Z,60.5427
2023-04-18T19:25:40.448Z,60.6594
2023-04-18T19:26:41.212Z,60.7299
2023-04-18T19:27:41.996Z,60.7868
2023-04-18T19:28:42.784Z,60.8231
2023-04-18T19:29:43.575Z,60.9518
2023-04-18T19:30:44.376Z,61.0305
2023-04-18T19:31:45.143Z,61.0853
2023-04-18T19:32:45.956Z,61.1950
2023-04-18T19:33:46.729Z,61.1758
2023-04-18T19:34:47.542Z,61.2720
2023-04-18T19:35:48.333Z,61.3500
2023-04-18T19:36:49.109Z,61.5071
2023-04-18T19:37:49.886Z,61.5845
2023-04-18T19:38:50.706Z,61.7112
2023-04-18T19:39:51.495Z,61.8136
2023-04-18T19:40:52.275Z,61.8201
2023-04-18T19:41:53.039Z,61.8611
2023-04-18T19:42:54.073Z,61.9192
2023-04-18T19:43:54.862Z,61.9778
2023-04-18T19:44:55.636Z,62.0615
2023-04-18T19:45:56.469Z,62.0625
2023-04-18T19:46:57.240Z,62.1751
2023-04-18T19:47:58.075Z,62.2975
2023-04-18T19:48:58.833Z,62.3817
2023-04-18T19:49:59.619Z,62.3964
2023-04-18T19:51:00.396Z,62.4251
2023-04-18T19:52:01.209Z,62.5215
2023-04-18T19:53:02.016Z,62.5569
2023-04-18T19:54:02.815Z,62.5973
2023-04-18T19:55:03.586Z,62.6635
2023-04-18T19:56:04.352Z,62.7237
2023-04-18T19:57:05.118Z,62.8310
2023-04-18T19:58:05.914Z,62.9521
2023-04-18T19:59:06.701Z,62.9900
2023-04-18T20:00:07.460Z,63.0611
2023-04-18T20:01:08.311Z,63.1227
2023-04-18T20:02:09.133Z,63.1761
2023-04-18T20:03:10.064Z,63.2842
2023-04-18T20:04:11.162Z,63.3652
2023-04-18T20:05:12.133Z,63.5178
2023-04-18T20:06:13.031Z,63.6023
2023-04-18T20:07:13.786Z,63.5866
2023-04-18T20:08:14.581Z,63.6217
2023-04-18T20:09:15.636Z,63.7932
2023-04-18T20:10:16.853Z,63.8599
2023-04-18T20:11:17.609Z,63.9386
2023-04-18T20:12:18.415Z,64.0373
2023-04-18T20:13:19.418Z,64.0625
2023-04-18T20:14:20.198Z,64.0803
2023-04-18T20:15:20.997Z,64.1157
2023-04-18T20:16:21.782Z,64.2248
2023-04-18T20:17:22.592Z,64.3088
2023-04-18T20:18:23.435Z,64.4585
2023-04-18T20:19:24.244Z,64.5199
2023-04-18T20:20:25.003Z,64.5186
2023-04-18T20:21:25.754Z,64.5656
2023-04-18T20:22:26.548Z,64.6379
2023-04-18T20:23:27.564Z,64.7126
2023-04-18T20:24:28.380Z,64.7655
2023-04-18T20:25:29.210Z,64.8341
2023-04-18T20:26:29.952Z,64.9233
2023-04-18T20:27:30.744Z,64.9539
2023-04-18T20:28:38.644Z,65.0366
2023-04-18T20:29:39.444Z,65.0255
2023-04-18T20:30:40.260Z,65.0875
2023-04-18T20:31:41.026Z,65.1313
2023-04-18T20:32:41.851Z,65.2015
2023-04-18T20:33:42.585Z,65.2669
2023-04-18T20:34:51.940Z,65.3250
2023-04-18T20:35:52.733Z,65.3779
2023-04-18T20:36:53.516Z,65.4612
2023-04-18T20:37:54.306Z,65.5063
2023-04-18T20:38:55.095Z,65.5974
2023-04-18T20:39:55.898Z,65.6260
2023-04-18T20:40:56.660Z,65.6266
2023-04-18T20:41:57.537Z,65.6858
2023-04-18T20:42:58.429Z,65.8228
2023-04-18T20:43:59.198Z,65.8513
2023-04-18T20:44:59.956Z,65.8641
2023-04-18T20:46:00.764Z,65.9482
2023-04-18T20:47:01.541Z,65.9614
2023-04-18T20:48:02.614Z,66.0118
2023-04-18T20:49:03.372Z,66.0778
2023-04-18T20:50:04.176Z,66.1465
2023-04-18T20:51:04.979Z,66.2293
2023-04-18T20:52:05.769Z,66.2949
2023-04-18T20:53:06.529Z,66.3320
2023-04-18T20:54:07.305Z,66.3631
2023-04-18T20:55:08.089Z,66.4018
2023-04-18T20:56:08.951Z,66.5348
2023-04-18T20:57:09.714Z,66.5713
2023-04-18T20:58:10.523Z,66.6142
2023-04-18T20:59:11.310Z,66.6719
2023-04-18T21:00:12.068Z,66.7102
2023-04-18T21:01:12.898Z,66.7846
2023-04-18T21:02:13.795Z,66.8395
2023-04-18T21:03:14.667Z,66.8543
2023-04-18T21:04:15.923Z,66.9622
2023-04-18T21:05:17.557Z,66.9825
2023-04-18T21:06:18.326Z,67.1228
2023-04-18T21:07:19.097Z,67.2133
2023-04-18T21:08:20.145Z,67.2405
2023-04-18T21:09:20.936Z,67.2574
2023-04-18T21:10:21.701Z,67.2309
2023-04-18T21:11:22.453Z,67.2498
2023-04-18T21:12:23.248Z,67.3127
2023-04-18T21:13:24.035Z,67.3796
2023-04-18T21:14:24.824Z,67.4364
2023-04-18T21:15:25.872Z,67.5444
2023-04-18T21:16:26.699Z,67.6751
2023-04-18T21:17:27.473Z,67.6577
2023-04-18T21:18:28.514Z,67.6707
2023-04-18T21:19:29.299Z,67.6912
2023-04-18T21:20:30.117Z,67.6690
2023-04-18T21:21:30.910Z,67.7811
2023-04-18T21:22:31.663Z,67.8387
2023-04-18T21:23:32.458Z,67.8895
2023-04-18T21:24:33.212Z,67.8831
2023-04-18T21:25:34.225Z,67.9420
2023-04-18T21:26:35.021Z,67.9717
2023-04-18T21:27:35.802Z,68.0083
2023-04-18T21:28:36.790Z,68.0505
2023-04-18T21:29:37.553Z,68.1335
2023-04-18T21:30:38.345Z,68.1993
2023-04-18T21:31:39.171Z,68.2223
2023-04-18T21:32:39.927Z,68.2816
2023-04-18T21:33:40.691Z,68.3020
2023-04-18T21:34:42.420Z,68.2987
2023-04-18T21:35:43.187Z,68.3580
2023-04-18T21:36:44.002Z,68.4441
2023-04-18T21:37:44.754Z,68.5186
2023-04-18T21:38:45.533Z,68.5939
2023-04-18T21:39:46.311Z,68.5971
2023-04-18T21:40:47.080Z,68.6315
2023-04-18T21:41:47.858Z,68.6797
2023-04-18T21:42:49.881Z,68.7665
2023-04-18T21:43:50.732Z,68.8150
2023-04-18T21:44:51.489Z,68.8941
2023-04-18T21:45:52.366Z,68.9327
2023-04-18T21:46:53.114Z,69.0197
2023-04-18T21:47:54.166Z,69.1271
2023-04-18T21:48:54.916Z,69.1104
2023-04-18T21:49:55.708Z,69.1072
2023-04-18T21:50:56.712Z,69.1440
2023-04-18T21:51:57.486Z,69.2022
2023-04-18T21:52:58.290Z,69.2677
2023-04-18T21:53:59.080Z,69.2821
2023-04-18T21:54:59.860Z,69.3783
2023-04-18T21:56:00.640Z,69.4688
2023-04-18T21:57:01.423Z,69.5263
2023-04-18T21:58:03.226Z,69.5650
2023-04-18T21:59:04.023Z,69.6337
2023-04-18T22:00:04.778Z,69.6367
2023-04-18T22:01:05.847Z,69.6559
2023-04-18T22:02:06.845Z,69.7005
2023-04-18T22:03:07.901Z,69.8042
2023-04-18T22:04:08.884Z,69.8451
2023-04-18T22:05:09.765Z,69.8442
2023-04-18T22:06:10.558Z,69.8374
2023-04-18T22:07:11.340Z,69.8962
2023-04-18T22:08:12.155Z,70.0022
2023-04-18T22:09:12.967Z,70.1285
2023-04-18T22:10:13.747Z,70.2057
2023-04-18T22:11:14.526Z,70.2109
2023-04-18T22:12:15.301Z,70.2669
2023-04-18T22:13:16.103Z,70.3057
2023-04-18T22:14:17.019Z,70.3107
2023-04-18T22:15:17.801Z,70.4131
2023-04-18T22:16:18.829Z,70.4568
2023-04-18T22:17:19.628Z,70.4757
2023-04-18T22:18:20.420Z,70.4747
2023-04-18T22:19:21.230Z,70.5459
2023-04-18T22:20:22.022Z,70.5614
2023-04-18T22:21:22.823Z,70.6340
2023-04-18T22:22:23.668Z,70.6637
2023-04-18T22:23:24.491Z,70.7430
2023-04-18T22:24:25.289Z,70.8257
2023-04-18T22:25:26.104Z,70.8946
2023-04-18T22:26:26.915Z,70.9609
2023-04-18T22:27:27.719Z,71.0376
2023-04-18T22:28:28.787Z,71.0646
2023-04-18T22:29:29.583Z,71.0350
2023-04-18T22:30:30.473Z,71.0113
2023-04-18T22:31:31.388Z,71.0874
2023-04-18T22:32:32.200Z,71.1666
2023-04-18T22:33:32.955Z,71.2186
2023-04-18T22:34:33.787Z,71.2750
2023-04-18T22:35:34.622Z,71.3154
2023-04-18T22:36:35.982Z,71.3158
2023-04-18T22:37:36.772Z,71.3092
2023-04-18T22:38:37.590Z,71.2844
2023-04-18T22:39:38.422Z,71.2687
2023-04-18T22:40:39.241Z,71.3228
2023-04-18T22:41:40.089Z,71.4656
2023-04-18T22:42:40.891Z,71.5403
2023-04-18T22:43:41.735Z,71.6439
2023-04-18T22:44:42.553Z,71.6483
2023-04-18T22:45:43.435Z,71.7015
2023-04-18T22:46:44.281Z,71.7441
2023-04-18T22:47:45.250Z,71.8571
2023-04-18T22:48:46.138Z,71.8833
2023-04-18T22:49:46.925Z,71.9883
2023-04-18T22:50:47.723Z,72.0491
2023-04-18T22:51:48.586Z,72.0691
2023-04-18T22:52:49.437Z,72.0471
2023-04-18T22:53:50.288Z,72.1550
2023-04-18T22:54:51.135Z,72.2272
2023-04-18T22:55:52.164Z,72.2422
2023-04-18T22:56:52.991Z,72.2770
2023-04-18T22:57:53.795Z,72.3028
2023-04-18T22:58:54.633Z,72.3376
2023-04-18T22:59:55.425Z,72.3424
2023-04-18T23:00:56.254Z,72.3340
2023-04-18T23:01:57.138Z,72.3142
2023-04-18T23:02:58.361Z,72.2661
2023-04-18T23:03:59.266Z,72.2084
2023-04-18T23:05:00.144Z,72.1586
2023-04-18T23:06:01.036Z,72.1502
2023-04-18T23:07:01.881Z,72.1201
2023-04-18T23:08:02.991Z,72.0602
2023-04-18T23:09:03.904Z,72.0137
2023-04-18T23:10:04.725Z,71.9815
2023-04-18T23:11:05.551Z,71.9566
2023-04-18T23:12:06.406Z,71.9221
2023-04-18T23:13:07.232Z,71.9145
2023-04-18T23:14:08.035Z,71.8777
2023-04-18T23:15:08.874Z,71.8223
2023-04-18T23:16:09.942Z,71.8004
2023-04-18T23:17:10.824Z,71.7542
2023-04-18T23:18:11.892Z,71.7251
2023-04-18T23:19:12.722Z,71.6834
2023-04-18T23:20:13.557Z,71.6705
2023-04-18T23:21:14.353Z,71.6364
2023-04-18T23:22:15.154Z,71.5986
2023-04-18T23:23:15.976Z,71.5788
2023-04-18T23:24:16.962Z,71.5536
2023-04-18T23:25:17.838Z,71.5341
2023-04-18T23:26:18.920Z,71.5088
2023-04-18T23:27:19.782Z,71.5038
2023-04-18T23:28:20.736Z,71.4876
2023-04-18T23:29:21.517Z,71.4868
2023-04-18T23:30:22.353Z,71.4843
2023-04-18T23:31:23.193Z,71.4538
2023-04-18T23:32:24.108Z,71.4632
2023-04-18T23:33:24.944Z,71.4387
2023-04-18T23:34:25.741Z,71.4161
2023-04-18T23:35:26.534Z,71.4094
2023-04-18T23:36:27.379Z,71.3990
2023-04-18T23:37:28.213Z,71.4173
2023-04-18T23:38:29.016Z,71.3655
2023-04-18T23:39:29.829Z,71.3138
2023-04-18T23:40:30.668Z,71.2763
2023-04-18T23:41:31.470Z,71.2341
2023-04-18T23:42:32.293Z,71.1922
2023-04-18T23:43:33.347Z,71.1436
2023-04-18T23:44:34.175Z,71.1279
2023-04-18T23:45:35.011Z,71.1039
2023-04-18T23:46:36.704Z,71.0632
2023-04-18T23:47:37.643Z,71.0201
2023-04-18T23:48:40.208Z,70.9847
2023-04-18T23:49:41.014Z,70.9784
2023-04-18T23:50:41.853Z,70.9575
2023-04-18T23:51:42.676Z,70.9355
2023-04-18T23:52:43.546Z,70.9316
2023-04-18T23:53:44.651Z,70.9325
2023-04-18T23:54:45.474Z,70.9053
2023-04-18T23:55:46.288Z,70.9113
2023-04-18T23:56:47.099Z,70.8594
2023-04-18T23:57:47.951Z,70.8524
2023-04-18T23:58:48.774Z,70.8470
2023-04-18T23:59:49.584Z,70.8288
